Santiago de Cuba, Cuba
Current Conditions -  °F | °C
As of 12:51 AM on Wednesday 22 Oct 2014 (Local Time) from MUCU Reporting Station
Few Clouds Few Clouds  
Wind Chill: 75°   Ceiling: Unl
Heat Index: 75°   Visibility: 6mi
Dew Point: 70°   Wind: 6mph
Humidity: 83%   Direction: 50°NE
Pressure: 29.94"   Gusts: NA
Location:  20.01°N, 75.82°W
Report Text: MUCU 220451Z 05005KT 9000 FEW020 24/21 Q1014
Loading
Personal Weather Stations






























Interactive Weather Map
Tropical Storm Tracking
New forecast layout! Learn more

10-Day Weather Forecast

Advertisements
Track Severe Weather on mobile